Time;durP1;ratioP1;P1;durP2;ratioP2;P2;SDS_P1;SDS_P2;PMS_P1;PMS_P2;Temp;Humidity;BMP_temperature;BMP_pressure;BME280_temperature;BME280_humidity;BME280_pressure;Samples;Min_cycle;Max_cycle;Signal;HPM_P1;HPM_P2
2023/05/30 00:01:28;;;;;;;;;;;;;;;;;;5044254;28;19960;-52
2023/05/30 00:03:55;;;;;;;;;;;;;;;;;;5047204;28;20049;-52
2023/05/30 00:06:21;;;;;;;;;;;;;;;;;;5041373;28;19909;-52
2023/05/30 00:08:47;;;;;;;;;;;;;;;;;;5045693;28;20558;-52
2023/05/30 00:11:13;;;;;;;;;;;;;;;;;;5039768;28;19955;-52
2023/05/30 00:13:39;;;;;;;;;;;;;;;;;;5046103;28;20031;-52
2023/05/30 00:16:07;;;;;;;;;;;;;;;;;;5043752;28;20098;-52
2023/05/30 00:18:36;;;;;;;;;;;;;;;;;;5046211;28;19915;-52
2023/05/30 00:21:03;;;;;;;;;;;;;;;;;;5041777;28;19912;-52
2023/05/30 00:23:29;;;;;;;;;;;;;;;;;;5046001;28;19919;-52
2023/05/30 00:25:56;;;;;;;;;;;;;;;;;;5043118;28;19917;-52
2023/05/30 00:28:21;;;;;;;;;;;;;;;;;;5043899;28;19909;-52
2023/05/30 00:30:47;;;;;;;;;;;;;;;;;;5046044;28;19967;-52
2023/05/30 00:33:13;;;;;;;;;;;;;;;;;;5043882;28;19960;-52
2023/05/30 00:35:39;;;;;;;;;;;;;;;;;;5043967;28;19999;-52
2023/05/30 00:38:05;;;;;;;;;;;;;;;;;;5041868;28;19998;-52
2023/05/30 00:40:31;;;;;;;;;;;;;;;;;;5044126;28;20387;-52
2023/05/30 00:42:57;;;;;;;;;;;;;;;;;;5046412;28;19952;-52
2023/05/30 00:45:23;;;;;;;;;;;;;;;;;;5044910;28;19959;-52
2023/05/30 00:47:50;;;;;;;;;;;;;;;;;;5043995;28;19934;-52
2023/05/30 00:50:18;;;;;;;;;;;;;;;;;;5044202;28;19916;-52
2023/05/30 00:52:44;;;;;;;;;;;;;;;;;;5046472;28;19909;-52
2023/05/30 00:55:10;;;;;;;;;;;;;;;;;;5044188;28;20382;-53
2023/05/30 00:57:36;;;;;;;;;;;;;;;;;;5044206;28;19916;-52
2023/05/30 01:00:02;;;;;;;;;;;;;;;;;;5042851;28;20331;-52
2023/05/30 01:02:28;;;;;;;;;;;;;;;;;;5043691;28;19943;-52
2023/05/30 01:04:54;;;;;;;;;;;;;;;;;;5042900;28;19951;-52
2023/05/30 01:07:20;;;;;;;;;;;;;;;;;;5043848;28;20053;-52
2023/05/30 01:09:46;;;;;;;;;;;;;;;;;;5044691;28;19955;-52
2023/05/30 01:12:12;;;;;;;;;;;;;;;;;;5043623;28;19956;-52
2023/05/30 01:14:38;;;;;;;;;;;;;;;;;;5046368;28;19932;-52
2023/05/30 01:17:04;;;;;;;;;;;;;;;;;;5044941;28;19959;-52
2023/05/30 01:19:30;;;;;;;;;;;;;;;;;;5043367;28;19953;-52
2023/05/30 01:21:56;;;;;;;;;;;;;;;;;;5041148;28;19912;-52
2023/05/30 01:24:22;;;;;;;;;;;;;;;;;;5043529;28;19959;-52
2023/05/30 01:26:48;;;;;;;;;;;;;;;;;;5040659;28;19959;-52
2023/05/30 01:29:17;;;;;;;;;;;;;;;;;;5043250;28;19940;-50
2023/05/30 01:31:43;;;;;;;;;;;;;;;;;;5045166;28;19927;-52
2023/05/30 01:34:09;;;;;;;;;;;;;;;;;;5045063;28;19963;-52
2023/05/30 01:36:35;;;;;;;;;;;;;;;;;;5041352;28;19960;-51
2023/05/30 01:39:01;;;;;;;;;;;;;;;;;;5046628;28;20375;-53
2023/05/30 01:41:27;;;;;;;;;;;;;;;;;;5024731;28;19912;-52
2023/05/30 01:43:53;;;;;;;;;;;;;;;;;;5045673;28;19913;-53
2023/05/30 01:46:20;;;;;;;;;;;;;;;;;;5041242;28;20011;-53
2023/05/30 01:48:46;;;;;;;;;;;;;;;;;;5044047;28;19924;-52
2023/05/30 01:51:12;;;;;;;;;;;;;;;;;;5043129;28;20106;-52
2023/05/30 01:53:38;;;;;;;;;;;;;;;;;;5042358;28;20538;-52
2023/05/30 01:56:04;;;;;;;;;;;;;;;;;;5038125;28;20356;-52
2023/05/30 01:58:30;;;;;;;;;;;;;;;;;;5043414;28;19928;-53
2023/05/30 02:00:56;;;;;;;;;;;;;;;;;;5042039;28;20026;-52
2023/05/30 02:03:23;;;;;;;;;;;;;;;;;;5042640;28;20313;-52
2023/05/30 02:05:49;;;;;;;;;;;;;;;;;;5041389;28;19917;-53
2023/05/30 02:08:15;;;;;;;;;;;;;;;;;;5022988;28;19909;-54
2023/05/30 02:10:41;;;;;;;;;;;;;;;;;;5042628;28;20272;-52
2023/05/30 02:13:07;;;;;;;;;;;;;;;;;;5044817;28;20345;-53
2023/05/30 02:15:33;;;;;;;;;;;;;;;;;;5044034;28;19947;-52
2023/05/30 02:17:59;;;;;;;;;;;;;;;;;;5043564;28;20009;-52
2023/05/30 02:20:25;;;;;;;;;;;;;;;;;;5043107;28;19908;-52
2023/05/30 02:22:51;;;;;;;;;;;;;;;;;;5044858;28;20066;-52
2023/05/30 02:25:19;;;;;;;;;;;;;;;;;;5043108;28;20238;-52
2023/05/30 02:27:47;;;;;;;;;;;;;;;;;;5043991;28;20011;-52
2023/05/30 02:30:13;;;;;;;;;;;;;;;;;;5045692;28;20004;-52
2023/05/30 02:32:39;;;;;;;;;;;;;;;;;;5043123;28;19916;-52
2023/05/30 02:35:05;;;;;;;;;;;;;;;;;;5040891;28;19941;-52
2023/05/30 02:37:31;;;;;;;;;;;;;;;;;;5043226;28;20354;-52
2023/05/30 02:39:57;;;;;;;;;;;;;;;;;;5044279;28;19908;-52
2023/05/30 02:42:23;;;;;;;;;;;;;;;;;;5044124;28;20376;-52
2023/05/30 02:44:49;;;;;;;;;;;;;;;;;;5045401;28;19940;-51
2023/05/30 02:47:16;;;;;;;;;;;;;;;;;;5042160;28;19915;-52
2023/05/30 02:49:42;;;;;;;;;;;;;;;;;;5044354;28;20356;-52
2023/05/30 02:52:08;;;;;;;;;;;;;;;;;;5044312;28;20050;-51
2023/05/30 02:54:33;;;;;;;;;;;;;;;;;;5043549;28;20012;-51
2023/05/30 02:57:00;;;;;;;;;;;;;;;;;;5043263;28;20383;-51
2023/05/30 02:59:26;;;;;;;;;;;;;;;;;;5044048;28;20010;-52
2023/05/30 03:01:52;;;;;;;;;;;;;;;;;;5039205;28;20003;-51
2023/05/30 03:04:18;;;;;;;;;;;;;;;;;;5044964;28;19999;-52
2023/05/30 03:06:44;;;;;;;;;;;;;;;;;;5039512;28;20040;-52
2023/05/30 03:09:11;;;;;;;;;;;;;;;;;;5047669;28;20007;-52
2023/05/30 03:11:37;;;;;;;;;;;;;;;;;;5045657;28;19978;-51
2023/05/30 03:14:02;;;;;;;;;;;;;;;;;;5030315;28;19971;-51
2023/05/30 03:16:28;;;;;;;;;;;;;;;;;;5044678;28;20042;-50
2023/05/30 03:18:54;;;;;;;;;;;;;;;;;;5046795;28;19955;-50
2023/05/30 03:21:20;;;;;;;;;;;;;;;;;;5040869;28;19956;-49
2023/05/30 03:23:49;;;;;;;;;;;;;;;;;;5047720;28;20298;-50
2023/05/30 03:26:15;;;;;;;;;;;;;;;;;;5043058;28;20126;-50
2023/05/30 03:28:41;;;;;;;;;;;;;;;;;;5046817;28;19919;-50
2023/05/30 03:31:07;;;;;;;;;;;;;;;;;;5046278;28;19913;-50
2023/05/30 03:33:33;;;;;;;;;;;;;;;;;;5048575;28;20003;-51
2023/05/30 03:35:59;;;;;;;;;;;;;;;;;;5045467;28;20011;-50
2023/05/30 03:38:25;;;;;;;;;;;;;;;;;;5045004;28;19951;-51
2023/05/30 03:40:51;;;;;;;;;;;;;;;;;;5043063;28;19945;-50
2023/05/30 03:43:17;;;;;;;;;;;;;;;;;;5047704;28;19936;-50
2023/05/30 03:45:43;;;;;;;;;;;;;;;;;;5028947;28;20001;-50
2023/05/30 03:48:09;;;;;;;;;;;;;;;;;;5046265;28;19959;-50
2023/05/30 03:50:35;;;;;;;;;;;;;;;;;;5043498;28;19944;-50
2023/05/30 03:53:01;;;;;;;;;;;;;;;;;;5048284;28;19922;-50
2023/05/30 03:55:27;;;;;;;;;;;;;;;;;;5043518;28;19920;-49
2023/05/30 03:57:53;;;;;;;;;;;;;;;;;;5046082;28;20373;-50
2023/05/30 04:00:19;;;;;;;;;;;;;;;;;;5046453;28;19958;-52
2023/05/30 04:02:46;;;;;;;;;;;;;;;;;;5045442;28;20471;-52
2023/05/30 04:05:11;;;;;;;;;;;;;;;;;;5046600;28;19909;-49
2023/05/30 04:07:38;;;;;;;;;;;;;;;;;;5042587;28;19955;-49
2023/05/30 04:10:04;;;;;;;;;;;;;;;;;;5044313;28;20347;-50
2023/05/30 04:12:30;;;;;;;;;;;;;;;;;;5046024;28;19964;-49
2023/05/30 04:14:56;;;;;;;;;;;;;;;;;;5046587;28;19913;-50
2023/05/30 04:17:22;;;;;;;;;;;;;;;;;;5038280;28;20004;-50
2023/05/30 04:19:48;;;;;;;;;;;;;;;;;;5041928;28;19960;-50
2023/05/30 04:22:13;;;;;;;;;;;;;;;;;;5045757;28;19943;-50
2023/05/30 04:24:39;;;;;;;;;;;;;;;;;;5044868;28;20009;-52
2023/05/30 04:27:05;;;;;;;;;;;;;;;;;;5045015;28;19955;-50
2023/05/30 04:29:32;;;;;;;;;;;;;;;;;;5046968;28;19956;-51
2023/05/30 04:31:58;;;;;;;;;;;;;;;;;;5045353;28;19934;-51
2023/05/30 04:34:24;;;;;;;;;;;;;;;;;;5045450;28;19931;-51
2023/05/30 04:36:53;;;;;;;;;;;;;;;;;;5044404;28;19948;-51
2023/05/30 04:39:19;;;;;;;;;;;;;;;;;;5045582;28;19913;-51
2023/05/30 04:41:45;;;;;;;;;;;;;;;;;;5043713;28;19956;-54
2023/05/30 04:44:11;;;;;;;;;;;;;;;;;;5027886;28;20027;-51
2023/05/30 04:46:37;;;;;;;;;;;;;;;;;;5042801;28;20030;-51
2023/05/30 04:49:03;;;;;;;;;;;;;;;;;;5047931;28;19941;-51
2023/05/30 04:51:29;;;;;;;;;;;;;;;;;;5045015;28;19912;-51
2023/05/30 04:53:55;;;;;;;;;;;;;;;;;;5045137;28;19955;-51
2023/05/30 04:56:21;;;;;;;;;;;;;;;;;;5045368;28;19939;-52
2023/05/30 04:58:48;;;;;;;;;;;;;;;;;;5047064;28;20449;-52
2023/05/30 05:01:14;;;;;;;;;;;;;;;;;;5036321;28;19923;-52
2023/05/30 05:03:40;;;;;;;;;;;;;;;;;;5045323;28;20368;-52
2023/05/30 05:06:06;;;;;;;;;;;;;;;;;;5022937;28;20297;-52
2023/05/30 05:08:33;;;;;;;;;;;;;;;;;;5042268;28;19948;-52
2023/05/30 05:10:59;;;;;;;;;;;;;;;;;;5044084;28;19912;-52
2023/05/30 05:13:25;;;;;;;;;;;;;;;;;;5046246;28;19966;-52
2023/05/30 05:15:51;;;;;;;;;;;;;;;;;;5041526;28;19913;-52
2023/05/30 05:18:17;;;;;;;;;;;;;;;;;;5046541;28;19967;-52
2023/05/30 05:20:43;;;;;;;;;;;;;;;;;;5042683;28;20432;-52
2023/05/30 05:23:09;;;;;;;;;;;;;;;;;;5031342;28;19950;-52
2023/05/30 05:25:36;;;;;;;;;;;;;;;;;;5042222;28;19913;-51
2023/05/30 05:28:02;;;;;;;;;;;;;;;;;;5047251;28;19934;-52
2023/05/30 05:30:28;;;;;;;;;;;;;;;;;;5044943;28;20071;-52
2023/05/30 05:32:54;;;;;;;;;;;;;;;;;;5042335;28;19959;-51
2023/05/30 05:35:20;;;;;;;;;;;;;;;;;;5044965;28;19980;-52
2023/05/30 05:37:46;;;;;;;;;;;;;;;;;;5043561;28;19917;-51
2023/05/30 05:40:12;;;;;;;;;;;;;;;;;;5040662;28;19912;-51
2023/05/30 05:42:39;;;;;;;;;;;;;;;;;;5040472;28;19923;-51
2023/05/30 05:45:05;;;;;;;;;;;;;;;;;;5040249;28;19912;-52
2023/05/30 05:47:31;;;;;;;;;;;;;;;;;;5043933;28;19944;-51
2023/05/30 05:49:57;;;;;;;;;;;;;;;;;;5037092;28;19952;-52
2023/05/30 05:52:23;;;;;;;;;;;;;;;;;;5042056;28;20001;-52
2023/05/30 05:54:50;;;;;;;;;;;;;;;;;;5040647;28;19970;-52
2023/05/30 05:57:16;;;;;;;;;;;;;;;;;;5045299;28;20288;-51
2023/05/30 05:59:42;;;;;;;;;;;;;;;;;;5041050;28;19973;-52
2023/05/30 06:02:07;;;;;;;;;;;;;;;;;;5039384;28;20372;-51
2023/05/30 06:04:33;;;;;;;;;;;;;;;;;;5046158;28;19951;-52
2023/05/30 06:06:59;;;;;;;;;;;;;;;;;;5044966;28;19944;-52
2023/05/30 06:09:30;;;;;;;;;;;;;;;;;;5043020;28;19955;-52
2023/05/30 06:11:56;;;;;;;;;;;;;;;;;;5042091;28;20214;-52
2023/05/30 06:14:22;;;;;;;;;;;;;;;;;;5044135;28;19963;-52
2023/05/30 06:16:49;;;;;;;;;;;;;;;;;;5041502;28;20521;-52
2023/05/30 06:19:15;;;;;;;;;;;;;;;;;;5044373;28;19921;-51
2023/05/30 06:21:41;;;;;;;;;;;;;;;;;;5042726;28;19959;-52
2023/05/30 06:24:07;;;;;;;;;;;;;;;;;;5040234;28;19983;-53
2023/05/30 06:26:33;;;;;;;;;;;;;;;;;;5042509;28;20321;-53
2023/05/30 06:28:59;;;;;;;;;;;;;;;;;;5044223;28;20007;-53
2023/05/30 06:31:25;;;;;;;;;;;;;;;;;;5022806;28;19909;-50
2023/05/30 06:33:51;;;;;;;;;;;;;;;;;;5042711;28;20410;-50
2023/05/30 06:36:17;;;;;;;;;;;;;;;;;;5044126;28;19974;-50
2023/05/30 06:38:43;;;;;;;;;;;;;;;;;;5038135;28;19962;-50
2023/05/30 06:41:09;;;;;;;;;;;;;;;;;;5041823;28;20254;-50
2023/05/30 06:43:35;;;;;;;;;;;;;;;;;;5050932;28;20299;-50
2023/05/30 06:46:01;;;;;;;;;;;;;;;;;;5041575;28;19944;-50
2023/05/30 06:48:27;;;;;;;;;;;;;;;;;;5048510;28;20386;-50
2023/05/30 06:50:53;;;;;;;;;;;;;;;;;;5048542;28;20442;-52
2023/05/30 06:53:19;;;;;;;;;;;;;;;;;;5044567;28;20246;-51
2023/05/30 06:55:45;;;;;;;;;;;;;;;;;;5039964;28;19959;-50
2023/05/30 06:58:11;;;;;;;;;;;;;;;;;;5047315;28;19940;-50
2023/05/30 07:00:38;;;;;;;;;;;;;;;;;;5046165;28;19955;-50
2023/05/30 07:03:04;;;;;;;;;;;;;;;;;;5046750;28;19978;-50
2023/05/30 07:05:30;;;;;;;;;;;;;;;;;;5043098;28;20608;-50
2023/05/30 07:07:55;;;;;;;;;;;;;;;;;;5050474;28;19946;-50
2023/05/30 07:10:22;;;;;;;;;;;;;;;;;;5037058;28;19956;-51
2023/05/30 07:12:48;;;;;;;;;;;;;;;;;;5043233;28;19913;-52
2023/05/30 07:15:14;;;;;;;;;;;;;;;;;;5040282;28;20257;-51
2023/05/30 07:17:40;;;;;;;;;;;;;;;;;;5048883;28;19995;-52
2023/05/30 07:20:06;;;;;;;;;;;;;;;;;;5041535;28;19912;-52
2023/05/30 07:25:17;;;;;;;;;;;;;;;;;;5044207;28;20381;-52
2023/05/30 07:27:43;;;;;;;;;;;;;;;;;;5043919;28;19913;-52
2023/05/30 07:30:09;;;;;;;;;;;;;;;;;;5042678;28;19940;-52
2023/05/30 07:32:35;;;;;;;;;;;;;;;;;;5050232;28;20303;-52
2023/05/30 07:35:01;;;;;;;;;;;;;;;;;;5036973;28;19945;-52
2023/05/30 07:37:27;;;;;;;;;;;;;;;;;;5048514;28;19956;-52
2023/05/30 07:39:53;;;;;;;;;;;;;;;;;;5029694;28;19967;-52
2023/05/30 07:42:19;;;;;;;;;;;;;;;;;;5047662;28;20368;-58
2023/05/30 07:44:45;;;;;;;;;;;;;;;;;;5047857;28;19909;-58
2023/05/30 07:47:11;;;;;;;;;;;;;;;;;;5048536;28;20043;-59
2023/05/30 07:49:37;;;;;;;;;;;;;;;;;;5046397;28;20461;-58
2023/05/30 07:52:03;;;;;;;;;;;;;;;;;;5050291;28;19913;-59
2023/05/30 07:54:30;;;;;;;;;;;;;;;;;;5045378;28;20360;-59
2023/05/30 07:56:56;;;;;;;;;;;;;;;;;;5042951;28;20276;-60
2023/05/30 07:59:22;;;;;;;;;;;;;;;;;;5042811;28;20356;-60
2023/05/30 08:01:48;;;;;;;;;;;;;;;;;;5029367;28;20073;-60
2023/05/30 08:04:14;;;;;;;;;;;;;;;;;;5048666;28;20307;-58
2023/05/30 08:06:40;;;;;;;;;;;;;;;;;;5046940;28;19967;-58
2023/05/30 08:09:06;;;;;;;;;;;;;;;;;;5048152;28;19943;-59
2023/05/30 08:11:32;;;;;;;;;;;;;;;;;;5047906;28;20317;-57
2023/05/30 08:13:58;;;;;;;;;;;;;;;;;;5048812;28;20013;-58
2023/05/30 08:16:24;;;;;;;;;;;;;;;;;;5046539;28;20015;-58
2023/05/30 08:18:51;;;;;;;;;;;;;;;;;;5046671;28;19956;-58
2023/05/30 08:21:17;;;;;;;;;;;;;;;;;;5044509;28;20015;-58
2023/05/30 08:23:46;;;;;;;;;;;;;;;;;;5039276;28;20081;-58
2023/05/30 08:26:12;;;;;;;;;;;;;;;;;;5045299;28;19909;-58
2023/05/30 08:28:38;;;;;;;;;;;;;;;;;;5044206;28;21042;-58
2023/05/30 08:31:05;;;;;;;;;;;;;;;;;;5047948;28;20352;-58
2023/05/30 08:33:34;;;;;;;;;;;;;;;;;;5044259;28;20372;-58
2023/05/30 08:36:00;;;;;;;;;;;;;;;;;;5046496;28;19920;-60
2023/05/30 08:38:26;;;;;;;;;;;;;;;;;;5039746;28;19994;-59
2023/05/30 08:40:53;;;;;;;;;;;;;;;;;;5039088;28;20260;-59
2023/05/30 08:43:19;;;;;;;;;;;;;;;;;;5046654;28;20357;-59
2023/05/30 08:45:45;;;;;;;;;;;;;;;;;;5044532;28;19966;-58
2023/05/30 08:48:10;;;;;;;;;;;;;;;;;;5040340;28;19956;-59
2023/05/30 08:50:37;;;;;;;;;;;;;;;;;;5039957;28;20399;-58
2023/05/30 08:53:03;;;;;;;;;;;;;;;;;;5044175;28;19944;-59
2023/05/30 08:55:29;;;;;;;;;;;;;;;;;;5037768;28;19944;-59
2023/05/30 08:57:55;;;;;;;;;;;;;;;;;;5038677;28;19916;-60
2023/05/30 09:00:21;;;;;;;;;;;;;;;;;;5045206;28;19912;-58
2023/05/30 09:02:47;;;;;;;;;;;;;;;;;;5045459;28;19920;-58
2023/05/30 09:05:16;;;;;;;;;;;;;;;;;;5038905;28;19909;-58
2023/05/30 09:07:42;;;;;;;;;;;;;;;;;;5041349;28;19913;-59
2023/05/30 09:10:08;;;;;;;;;;;;;;;;;;5039810;28;19919;-59
2023/05/30 09:12:34;;;;;;;;;;;;;;;;;;5041444;28;19956;-59
2023/05/30 09:15:00;;;;;;;;;;;;;;;;;;5036032;28;19917;-60
2023/05/30 09:17:26;;;;;;;;;;;;;;;;;;5043735;28;19959;-60
2023/05/30 09:19:53;;;;;;;;;;;;;;;;;;5043125;28;20065;-60
2023/05/30 09:22:19;;;;;;;;;;;;;;;;;;5045265;28;19913;-60
2023/05/30 09:24:45;;;;;;;;;;;;;;;;;;5040251;28;20349;-60
2023/05/30 09:27:11;;;;;;;;;;;;;;;;;;5044065;28;19924;-62
2023/05/30 09:29:38;;;;;;;;;;;;;;;;;;5040701;28;19920;-60
2023/05/30 09:32:03;;;;;;;;;;;;;;;;;;5043950;28;19955;-60
2023/05/30 09:34:30;;;;;;;;;;;;;;;;;;5043894;28;19931;-60
2023/05/30 09:36:56;;;;;;;;;;;;;;;;;;5044384;28;19960;-61
2023/05/30 09:39:23;;;;;;;;;;;;;;;;;;5039422;28;19916;-61
2023/05/30 09:41:49;;;;;;;;;;;;;;;;;;5043262;28;20448;-61
2023/05/30 09:44:15;;;;;;;;;;;;;;;;;;5041192;28;19918;-61
2023/05/30 09:46:41;;;;;;;;;;;;;;;;;;5041890;28;19912;-61
2023/05/30 09:49:07;;;;;;;;;;;;;;;;;;5044992;28;20085;-61
2023/05/30 09:51:33;;;;;;;;;;;;;;;;;;5042846;28;20464;-60
2023/05/30 09:53:59;;;;;;;;;;;;;;;;;;5046334;28;20013;-61
2023/05/30 09:56:25;;;;;;;;;;;;;;;;;;5040197;28;20315;-61
2023/05/30 09:58:51;;;;;;;;;;;;;;;;;;5042621;28;19952;-61
2023/05/30 10:01:17;;;;;;;;;;;;;;;;;;5038328;28;20380;-61
2023/05/30 10:03:43;;;;;;;;;;;;;;;;;;5021657;28;20249;-60
2023/05/30 10:06:10;;;;;;;;;;;;;;;;;;5022360;28;19997;-60
2023/05/30 10:08:36;;;;;;;;;;;;;;;;;;5040430;28;20360;-61
2023/05/30 10:11:02;;;;;;;;;;;;;;;;;;5039513;28;19999;-61
2023/05/30 10:13:28;;;;;;;;;;;;;;;;;;5045651;28;20003;-61
2023/05/30 10:15:54;;;;;;;;;;;;;;;;;;5041442;28;19962;-59
2023/05/30 10:18:20;;;;;;;;;;;;;;;;;;5046240;28;19952;-58
2023/05/30 10:20:46;;;;;;;;;;;;;;;;;;5046137;28;19963;-59
2023/05/30 10:23:12;;;;;;;;;;;;;;;;;;5043193;28;19936;-58
2023/05/30 10:25:38;;;;;;;;;;;;;;;;;;5044555;28;20314;-59
2023/05/30 10:28:04;;;;;;;;;;;;;;;;;;5047321;28;19974;-59
2023/05/30 10:30:30;;;;;;;;;;;;;;;;;;5045309;28;19916;-59
2023/05/30 10:32:56;;;;;;;;;;;;;;;;;;5043986;28;20570;-61
2023/05/30 10:35:22;;;;;;;;;;;;;;;;;;5039031;28;19955;-61
2023/05/30 10:37:48;;;;;;;;;;;;;;;;;;5035111;28;19958;-58
2023/05/30 10:40:16;;;;;;;;;;;;;;;;;;5047978;28;19979;-58
2023/05/30 10:42:41;;;;;;;;;;;;;;;;;;5049890;28;19966;-62
2023/05/30 10:45:07;;;;;;;;;;;;;;;;;;5041079;28;19951;-62
2023/05/30 10:47:34;;;;;;;;;;;;;;;;;;5047708;28;19947;-61
2023/05/30 10:50:00;;;;;;;;;;;;;;;;;;5042394;28;19925;-61
2023/05/30 10:52:26;;;;;;;;;;;;;;;;;;5047283;28;19913;-62
2023/05/30 10:54:52;;;;;;;;;;;;;;;;;;5026811;28;20046;-61
2023/05/30 10:57:20;;;;;;;;;;;;;;;;;;5046074;28;19963;-61
2023/05/30 10:59:46;;;;;;;;;;;;;;;;;;5042086;28;19913;-61
2023/05/30 11:02:17;;;;;;;;;;;;;;;;;;5025269;28;19920;-61
2023/05/30 11:04:43;;;;;;;;;;;;;;;;;;5047099;28;20063;-61
2023/05/30 11:07:09;;;;;;;;;;;;;;;;;;5043408;28;19944;-64
2023/05/30 11:09:35;;;;;;;;;;;;;;;;;;5038298;28;20999;-61
2023/05/30 11:12:02;;;;;;;;;;;;;;;;;;5046408;28;19995;-61
2023/05/30 11:14:28;;;;;;;;;;;;;;;;;;5046802;28;19924;-60
2023/05/30 11:16:54;;;;;;;;;;;;;;;;;;5045947;28;20375;-61
2023/05/30 11:19:20;;;;;;;;;;;;;;;;;;5044966;28;19984;-60
2023/05/30 11:21:46;;;;;;;;;;;;;;;;;;5043688;28;19962;-61
2023/05/30 11:24:12;;;;;;;;;;;;;;;;;;5043692;28;19912;-60
2023/05/30 11:26:38;;;;;;;;;;;;;;;;;;5043300;28;19960;-61
2023/05/30 11:29:04;;;;;;;;;;;;;;;;;;5042296;28;19915;-60
2023/05/30 11:31:32;;;;;;;;;;;;;;;;;;5043844;28;19912;-57
2023/05/30 11:33:58;;;;;;;;;;;;;;;;;;5045156;28;19966;-57
2023/05/30 11:36:24;;;;;;;;;;;;;;;;;;5044161;28;19952;-57
2023/05/30 11:38:52;;;;;;;;;;;;;;;;;;5044886;28;19999;-58
2023/05/30 11:41:18;;;;;;;;;;;;;;;;;;5042883;28;20003;-57
2023/05/30 11:43:44;;;;;;;;;;;;;;;;;;5044788;28;20424;-58
2023/05/30 11:46:10;;;;;;;;;;;;;;;;;;5048272;28;20277;-57
2023/05/30 11:48:36;;;;;;;;;;;;;;;;;;5046232;28;20035;-57
2023/05/30 11:51:02;;;;;;;;;;;;;;;;;;5041656;28;20451;-57
2023/05/30 11:53:28;;;;;;;;;;;;;;;;;;5045963;28;20399;-57
2023/05/30 11:55:54;;;;;;;;;;;;;;;;;;5040521;28;20404;-57
2023/05/30 11:58:20;;;;;;;;;;;;;;;;;;5043542;28;20957;-58
2023/05/30 12:00:47;;;;;;;;;;;;;;;;;;5043681;28;19924;-57
2023/05/30 12:03:16;;;;;;;;;;;;;;;;;;5048540;28;20344;-57
2023/05/30 12:05:42;;;;;;;;;;;;;;;;;;5044399;28;19913;-57
2023/05/30 12:08:08;;;;;;;;;;;;;;;;;;5048525;28;19933;-57
2023/05/30 12:10:34;;;;;;;;;;;;;;;;;;5042853;28;19992;-57
2023/05/30 12:13:00;;;;;;;;;;;;;;;;;;5049340;28;19944;-58
2023/05/30 12:15:26;;;;;;;;;;;;;;;;;;5048619;28;20003;-56
2023/05/30 12:17:52;;;;;;;;;;;;;;;;;;5047582;28;20011;-58
2023/05/30 12:20:18;;;;;;;;;;;;;;;;;;5038350;28;19943;-58
2023/05/30 12:22:44;;;;;;;;;;;;;;;;;;5049947;28;19912;-58
2023/05/30 12:25:11;;;;;;;;;;;;;;;;;;5047488;28;19978;-60
2023/05/30 12:27:37;;;;;;;;;;;;;;;;;;5046648;28;20265;-57
2023/05/30 12:30:03;;;;;;;;;;;;;;;;;;5035832;28;20011;-58
2023/05/30 12:32:29;;;;;;;;;;;;;;;;;;5049032;28;20007;-58
2023/05/30 12:34:55;;;;;;;;;;;;;;;;;;5048767;28;19944;-58
2023/05/30 12:37:21;;;;;;;;;;;;;;;;;;5049503;28;19971;-58
2023/05/30 12:39:47;;;;;;;;;;;;;;;;;;5044401;28;19982;-57
2023/05/30 12:42:13;;;;;;;;;;;;;;;;;;5048632;28;19943;-57
2023/05/30 12:44:39;;;;;;;;;;;;;;;;;;5046919;28;20356;-57
2023/05/30 12:47:05;;;;;;;;;;;;;;;;;;5049745;28;19973;-57
2023/05/30 12:49:31;;;;;;;;;;;;;;;;;;5047941;28;20407;-59
2023/05/30 12:51:57;;;;;;;;;;;;;;;;;;5048482;28;19928;-57
2023/05/30 12:54:23;;;;;;;;;;;;;;;;;;5044775;28;19983;-58
2023/05/30 12:56:49;;;;;;;;;;;;;;;;;;5048136;28;19956;-57
2023/05/30 12:59:15;;;;;;;;;;;;;;;;;;5048333;28;19975;-57
2023/05/30 13:01:41;;;;;;;;;;;;;;;;;;5038135;28;19917;-58
2023/05/30 13:04:06;;;;;;;;;;;;;;;;;;5048173;28;19908;-57
2023/05/30 13:06:32;;;;;;;;;;;;;;;;;;5047980;28;19951;-56
2023/05/30 13:08:58;;;;;;;;;;;;;;;;;;5048437;28;19956;-57
2023/05/30 13:11:24;;;;;;;;;;;;;;;;;;5046783;28;19955;-57
2023/05/30 13:13:50;;;;;;;;;;;;;;;;;;5046049;28;19971;-57
2023/05/30 13:16:16;;;;;;;;;;;;;;;;;;5041223;28;19948;-58
2023/05/30 13:18:42;;;;;;;;;;;;;;;;;;5044184;28;20007;-57
2023/05/30 13:21:08;;;;;;;;;;;;;;;;;;5045467;28;19928;-58
2023/05/30 13:23:34;;;;;;;;;;;;;;;;;;5038897;28;19912;-57
2023/05/30 13:26:00;;;;;;;;;;;;;;;;;;5041757;28;20062;-57
2023/05/30 13:28:28;;;;;;;;;;;;;;;;;;5046104;28;20326;-57
2023/05/30 13:30:54;;;;;;;;;;;;;;;;;;5045055;28;20357;-57
2023/05/30 13:33:21;;;;;;;;;;;;;;;;;;5043712;28;19974;-57
2023/05/30 13:35:47;;;;;;;;;;;;;;;;;;5042041;28;20302;-57
2023/05/30 13:38:13;;;;;;;;;;;;;;;;;;5042518;28;20647;-57
2023/05/30 13:40:39;;;;;;;;;;;;;;;;;;5043743;28;19908;-59
2023/05/30 13:43:06;;;;;;;;;;;;;;;;;;5040560;28;19916;-57
2023/05/30 13:45:32;;;;;;;;;;;;;;;;;;5040153;28;19917;-58
2023/05/30 13:48:01;;;;;;;;;;;;;;;;;;5045063;28;19920;-58
2023/05/30 13:50:27;;;;;;;;;;;;;;;;;;5043174;28;20364;-58
2023/05/30 13:52:53;;;;;;;;;;;;;;;;;;5045156;28;19971;-58
2023/05/30 13:55:19;;;;;;;;;;;;;;;;;;5042642;28;20332;-60
2023/05/30 13:57:47;;;;;;;;;;;;;;;;;;5045808;28;19971;-59
2023/05/30 14:00:13;;;;;;;;;;;;;;;;;;5035412;28;20026;-59
2023/05/30 14:02:40;;;;;;;;;;;;;;;;;;5042901;28;20305;-60
2023/05/30 14:05:06;;;;;;;;;;;;;;;;;;5039876;28;20003;-59
2023/05/30 14:07:32;;;;;;;;;;;;;;;;;;5043362;28;19913;-56
2023/05/30 14:09:58;;;;;;;;;;;;;;;;;;5036824;28;19959;-60
2023/05/30 14:12:25;;;;;;;;;;;;;;;;;;5047208;28;19951;-59
2023/05/30 14:14:51;;;;;;;;;;;;;;;;;;5045500;28;19917;-58
2023/05/30 14:17:18;;;;;;;;;;;;;;;;;;5045867;28;19967;-58
2023/05/30 14:19:44;;;;;;;;;;;;;;;;;;5042346;28;19958;-58
2023/05/30 14:22:10;;;;;;;;;;;;;;;;;;5035276;28;20087;-56
2023/05/30 14:24:36;;;;;;;;;;;;;;;;;;5037324;28;20368;-55
2023/05/30 14:27:02;;;;;;;;;;;;;;;;;;5046316;28;19933;-55
2023/05/30 14:29:28;;;;;;;;;;;;;;;;;;5043830;28;19920;-57
2023/05/30 14:31:54;;;;;;;;;;;;;;;;;;5035912;28;20001;-57
2023/05/30 14:34:20;;;;;;;;;;;;;;;;;;5043729;28;19960;-57
2023/05/30 14:36:46;;;;;;;;;;;;;;;;;;5044076;28;19956;-58
2023/05/30 14:39:12;;;;;;;;;;;;;;;;;;5042915;28;20353;-57
2023/05/30 14:41:38;;;;;;;;;;;;;;;;;;5042135;28;19912;-58
2023/05/30 14:44:04;;;;;;;;;;;;;;;;;;5041182;28;19924;-59
2023/05/30 14:46:30;;;;;;;;;;;;;;;;;;5040055;28;20104;-57
2023/05/30 14:48:56;;;;;;;;;;;;;;;;;;5042037;28;19956;-57
2023/05/30 14:51:23;;;;;;;;;;;;;;;;;;5040456;28;20244;-57
2023/05/30 14:53:50;;;;;;;;;;;;;;;;;;5023175;28;20287;-57
2023/05/30 14:56:16;;;;;;;;;;;;;;;;;;5039331;28;19947;-57
2023/05/30 14:58:42;;;;;;;;;;;;;;;;;;5042038;28;20257;-57
2023/05/30 15:01:08;;;;;;;;;;;;;;;;;;5041427;28;19909;-57
2023/05/30 15:03:34;;;;;;;;;;;;;;;;;;5042459;28;19974;-56
2023/05/30 15:06:00;;;;;;;;;;;;;;;;;;5046853;28;19913;-59
2023/05/30 15:08:26;;;;;;;;;;;;;;;;;;5025104;28;20317;-63
2023/05/30 15:10:52;;;;;;;;;;;;;;;;;;5042767;28;20084;-62
2023/05/30 15:13:18;;;;;;;;;;;;;;;;;;5024456;28;19915;-62
2023/05/30 15:15:44;;;;;;;;;;;;;;;;;;5043508;28;19912;-62
2023/05/30 15:18:10;;;;;;;;;;;;;;;;;;5023204;28;19960;-61
2023/05/30 15:20:37;;;;;;;;;;;;;;;;;;5047418;28;19917;-61
2023/05/30 15:23:06;;;;;;;;;;;;;;;;;;5030303;28;20321;-62
2023/05/30 15:25:32;;;;;;;;;;;;;;;;;;5043705;28;20426;-62
2023/05/30 15:27:58;;;;;;;;;;;;;;;;;;5033179;28;19905;-62
2023/05/30 15:30:24;;;;;;;;;;;;;;;;;;5048110;28;20398;-62
2023/05/30 15:32:50;;;;;;;;;;;;;;;;;;5052287;28;20019;-61
2023/05/30 15:35:16;;;;;;;;;;;;;;;;;;5067691;28;19931;-63
2023/05/30 15:37:42;;;;;;;;;;;;;;;;;;5066106;28;19963;-57
2023/05/30 15:40:37;;;;;;;;;;;;;;;;;;5071465;27;19924;-58
2023/05/30 15:43:03;;;;;;;;;;;;;;;;;;5042460;28;19913;-59
2023/05/30 15:45:29;;;;;;;;;;;;;;;;;;5040363;28;20639;-59
2023/05/30 15:47:55;;;;;;;;;;;;;;;;;;5034390;28;20059;-59
2023/05/30 15:50:21;;;;;;;;;;;;;;;;;;5045021;28;20355;-59
2023/05/30 15:52:47;;;;;;;;;;;;;;;;;;5042589;28;19925;-60
2023/05/30 15:55:13;;;;;;;;;;;;;;;;;;5041554;28;19917;-61
2023/05/30 15:57:39;;;;;;;;;;;;;;;;;;5041111;28;20001;-65
2023/05/30 16:00:06;;;;;;;;;;;;;;;;;;5040318;28;19925;-61
2023/05/30 16:02:32;;;;;;;;;;;;;;;;;;5044337;28;19952;-64
2023/05/30 16:04:58;;;;;;;;;;;;;;;;;;5042086;28;19925;-64
2023/05/30 16:07:24;;;;;;;;;;;;;;;;;;5075110;28;20394;-65
2023/05/30 16:09:53;;;;;;;;;;;;;;;;;;5040597;28;20341;-66
2023/05/30 16:12:21;;;;;;;;;;;;;;;;;;5041665;28;19960;-63
2023/05/30 16:14:47;;;;;;;;;;;;;;;;;;5043022;28;19913;-67
2023/05/30 16:17:13;;;;;;;;;;;;;;;;;;5044673;28;20369;-67
2023/05/30 16:19:39;;;;;;;;;;;;;;;;;;5042796;28;19928;-69
2023/05/30 16:22:05;;;;;;;;;;;;;;;;;;5067997;28;19920;-69
2023/05/30 16:24:31;;;;;;;;;;;;;;;;;;5042872;28;19925;-64
2023/05/30 16:26:57;;;;;;;;;;;;;;;;;;5043158;28;19952;-65
2023/05/30 16:29:23;;;;;;;;;;;;;;;;;;5040677;28;19955;-62
2023/05/30 16:31:49;;;;;;;;;;;;;;;;;;5040015;28;19968;-61
2023/05/30 16:34:15;;;;;;;;;;;;;;;;;;5037646;28;20011;-60
2023/05/30 16:36:42;;;;;;;;;;;;;;;;;;5040487;28;20047;-62
2023/05/30 16:39:15;;;;;;;;;;;;;;;;;;5043038;28;19925;-63
2023/05/30 16:41:41;;;;;;;;;;;;;;;;;;5040539;28;19936;-63